createdAt,value
2018-09-19T00:02:04.663Z,41.70
2018-09-19T00:04:33.820Z,41.80
2018-09-19T00:07:02.141Z,42.40
2018-09-19T00:09:30.586Z,41.70
2018-09-19T00:11:59.152Z,41.70
2018-09-19T00:14:27.486Z,41.90
2018-09-19T00:16:56.107Z,41.90
2018-09-19T00:19:24.385Z,41.80
2018-09-19T00:21:52.710Z,42.00
2018-09-19T00:24:21.069Z,42.00
2018-09-19T00:26:49.652Z,42.00
2018-09-19T00:29:18.227Z,42.00
2018-09-19T00:31:46.554Z,42.00
2018-09-19T00:34:14.882Z,42.10
2018-09-19T00:36:43.323Z,42.20
2018-09-19T00:39:11.608Z,42.20
2018-09-19T00:41:39.928Z,42.20
2018-09-19T00:44:08.204Z,42.30
2018-09-19T00:46:36.661Z,42.30
2018-09-19T00:49:05.175Z,42.40
2018-09-19T00:51:33.593Z,43.10
2018-09-19T00:54:01.908Z,42.60
2018-09-19T00:56:30.217Z,42.50
2018-09-19T00:58:58.580Z,42.60
2018-09-19T01:01:26.959Z,42.60
2018-09-19T01:03:55.273Z,42.70
2018-09-19T01:06:23.557Z,42.80
2018-09-19T01:08:51.927Z,42.80
2018-09-19T01:11:20.223Z,42.80
2018-09-19T01:13:48.807Z,42.90
2018-09-19T01:16:17.190Z,42.90
2018-09-19T01:18:45.513Z,43.10
2018-09-19T01:21:13.850Z,42.90
2018-09-19T01:23:42.181Z,43.10
2018-09-19T01:26:10.436Z,42.50
2018-09-19T01:28:38.753Z,43.00
2018-09-19T01:31:07.082Z,43.30
2018-09-19T01:33:35.460Z,42.90
2018-09-19T01:36:04.009Z,42.90
2018-09-19T01:38:32.298Z,43.00
2018-09-19T01:41:00.571Z,43.10
2018-09-19T01:43:28.870Z,43.20
2018-09-19T01:45:57.222Z,43.20
2018-09-19T01:48:25.503Z,43.30
2018-09-19T01:50:53.822Z,43.10
2018-09-19T01:53:22.231Z,43.00
2018-09-19T01:55:50.548Z,43.20
2018-09-19T01:58:18.937Z,43.10
2018-09-19T02:00:47.332Z,43.20
2018-09-19T02:03:15.619Z,43.30
2018-09-19T02:05:43.889Z,43.30
2018-09-19T02:08:12.273Z,43.10
2018-09-19T02:10:40.602Z,43.20
2018-09-19T02:13:08.947Z,43.30
2018-09-19T02:15:37.224Z,43.50
2018-09-19T02:18:05.522Z,43.30
2018-09-19T02:20:33.947Z,43.50
2018-09-19T02:23:02.612Z,43.60
2018-09-19T02:25:30.908Z,43.00
2018-09-19T02:27:59.257Z,43.70
2018-09-19T02:30:27.781Z,43.50
2018-09-19T02:32:56.245Z,43.70
2018-09-19T02:35:24.582Z,43.80
2018-09-19T02:37:52.948Z,44.00
2018-09-19T02:40:22.109Z,44.10
2018-09-19T02:42:50.431Z,43.90
2018-09-19T02:45:18.745Z,44.10
2018-09-19T02:47:47.449Z,44.00
2018-09-19T02:50:15.806Z,44.00
2018-09-19T02:52:44.173Z,44.00
2018-09-19T02:55:12.489Z,43.90
2018-09-19T02:57:40.769Z,44.20
2018-09-19T03:00:09.196Z,44.20
2018-09-19T03:02:37.497Z,44.30
2018-09-19T03:05:05.805Z,44.20
2018-09-19T03:07:34.125Z,44.90
2018-09-19T03:10:09.111Z,44.90
2018-09-19T03:12:37.456Z,44.30
2018-09-19T03:15:05.898Z,44.30
2018-09-19T03:17:34.368Z,44.40
2018-09-19T03:20:02.672Z,44.50
2018-09-19T03:22:31.031Z,44.40
2018-09-19T03:24:59.456Z,44.60
2018-09-19T03:27:27.821Z,44.50
2018-09-19T03:29:56.150Z,44.50
2018-09-19T03:32:24.557Z,44.50
2018-09-19T03:34:52.979Z,44.70
2018-09-19T03:37:21.639Z,44.70
2018-09-19T03:39:50.352Z,44.70
2018-09-19T03:42:18.841Z,44.70
2018-09-19T03:44:47.524Z,44.80
2018-09-19T03:47:15.968Z,44.80
2018-09-19T03:49:44.245Z,44.90
2018-09-19T03:52:12.498Z,44.70
2018-09-19T03:54:40.789Z,44.70
2018-09-19T03:57:09.043Z,44.70
2018-09-19T03:59:37.518Z,44.70
2018-09-19T04:02:05.902Z,44.70
2018-09-19T04:04:34.279Z,44.80
2018-09-19T04:07:02.572Z,44.90
2018-09-19T04:09:30.873Z,45.10
2018-09-19T04:11:59.211Z,45.20
2018-09-19T04:14:27.551Z,45.20
2018-09-19T04:16:55.840Z,45.40
2018-09-19T04:19:24.194Z,45.30
2018-09-19T04:21:53.510Z,45.50
2018-09-19T04:24:21.948Z,45.60
2018-09-19T04:26:50.568Z,45.60
2018-09-19T04:29:18.945Z,45.50
2018-09-19T04:31:47.354Z,45.40
2018-09-19T04:34:16.325Z,45.50
2018-09-19T04:36:44.768Z,45.80
2018-09-19T04:39:13.807Z,45.90
2018-09-19T04:41:42.314Z,45.90
2018-09-19T04:44:11.000Z,45.90
2018-09-19T04:46:40.026Z,46.00
2018-09-19T04:49:09.002Z,45.90
2018-09-19T04:51:38.551Z,45.90
2018-09-19T04:54:07.040Z,45.80
2018-09-19T04:56:36.118Z,45.80
2018-09-19T04:59:04.769Z,45.90
2018-09-19T05:01:33.112Z,45.90
2018-09-19T05:04:01.475Z,45.90
2018-09-19T05:06:29.802Z,46.10
2018-09-19T05:08:58.326Z,46.30
2018-09-19T05:11:26.710Z,46.20
2018-09-19T05:13:55.132Z,46.30
2018-09-19T05:16:23.454Z,46.20
2018-09-19T05:18:51.856Z,46.20
2018-09-19T05:21:20.350Z,46.10
2018-09-19T05:23:49.411Z,46.00
2018-09-19T05:26:17.876Z,46.00
2018-09-19T05:28:46.187Z,45.90
2018-09-19T05:31:14.554Z,46.00
2018-09-19T05:33:42.907Z,46.00
2018-09-19T05:36:11.270Z,46.00
2018-09-19T05:38:39.633Z,46.20
2018-09-19T05:41:08.313Z,46.30
2018-09-19T05:43:36.822Z,46.40
2018-09-19T05:46:05.497Z,46.50
2018-09-19T05:48:33.847Z,46.50
2018-09-19T05:51:02.188Z,47.10
2018-09-19T05:53:30.455Z,46.70
2018-09-19T05:55:58.993Z,46.70
2018-09-19T05:58:27.674Z,46.90
2018-09-19T06:00:56.524Z,46.80
2018-09-19T06:03:24.932Z,46.80
2018-09-19T06:05:53.288Z,46.90
2018-09-19T06:08:21.733Z,46.90
2018-09-19T06:10:50.224Z,46.80
2018-09-19T06:13:18.900Z,46.80
2018-09-19T06:15:47.203Z,46.60
2018-09-19T06:18:15.487Z,46.60
2018-09-19T06:20:43.793Z,46.60
2018-09-19T06:23:12.066Z,46.40
2018-09-19T06:25:40.384Z,46.40
2018-09-19T06:28:08.672Z,46.80
2018-09-19T06:30:37.100Z,46.50
2018-09-19T06:33:05.749Z,46.40
2018-09-19T06:35:34.077Z,46.40
2018-09-19T06:38:02.380Z,46.30
2018-09-19T06:40:30.789Z,46.30
2018-09-19T06:42:59.075Z,46.00
2018-09-19T06:45:27.394Z,46.00
2018-09-19T06:47:55.665Z,45.80
2018-09-19T06:50:24.114Z,45.80
2018-09-19T06:52:52.411Z,45.60
2018-09-19T06:55:20.709Z,45.40
2018-09-19T06:57:49.155Z,45.10
2018-09-19T07:00:17.617Z,45.00
2018-09-19T07:02:46.280Z,44.90
2018-09-19T07:05:14.694Z,44.70
2018-09-19T07:07:43.114Z,44.30
2018-09-19T07:10:11.445Z,43.80
2018-09-19T07:12:39.776Z,43.60
2018-09-19T07:15:08.119Z,43.20
2018-09-19T07:17:36.525Z,42.60
2018-09-19T07:20:04.904Z,42.20
2018-09-19T07:22:33.387Z,42.10
2018-09-19T07:25:01.790Z,41.90
2018-09-19T07:27:30.121Z,41.50
2018-09-19T07:29:58.462Z,41.20
2018-09-19T07:32:26.787Z,41.10
2018-09-19T07:34:55.231Z,41.10
2018-09-19T07:37:23.642Z,40.80
2018-09-19T07:39:52.008Z,40.40
2018-09-19T07:42:20.495Z,40.50
2018-09-19T07:44:48.825Z,40.20
2018-09-19T07:47:17.338Z,39.60
2018-09-19T07:49:46.058Z,38.70
2018-09-19T07:52:14.487Z,38.50
2018-09-19T07:54:42.883Z,37.70
2018-09-19T07:57:11.220Z,37.00
2018-09-19T07:59:39.548Z,36.50
2018-09-19T08:02:08.034Z,35.70
2018-09-19T08:04:36.395Z,35.20
2018-09-19T08:07:04.691Z,34.50
2018-09-19T08:09:32.962Z,33.90
2018-09-19T08:12:01.326Z,33.30
2018-09-19T08:14:29.661Z,32.70
2018-09-19T08:16:58.113Z,32.40
2018-09-19T08:19:26.435Z,32.00
2018-09-19T08:21:54.932Z,31.60
2018-09-19T08:24:23.283Z,31.30
2018-09-19T08:26:51.732Z,30.70
2018-09-19T08:29:20.052Z,30.60
2018-09-19T08:31:48.384Z,30.50
2018-09-19T08:34:16.647Z,30.10
2018-09-19T08:36:45.000Z,30.00
2018-09-19T08:39:13.259Z,30.00
2018-09-19T08:41:41.575Z,29.90
2018-09-19T08:44:09.839Z,29.60
2018-09-19T08:46:38.192Z,29.90
2018-09-19T08:49:06.498Z,29.90
2018-09-19T08:51:34.899Z,29.90
2018-09-19T08:54:03.166Z,29.90
2018-09-19T08:56:31.468Z,29.90
2018-09-19T08:58:59.843Z,29.80
2018-09-19T09:01:28.321Z,29.60
2018-09-19T09:03:56.673Z,29.40
2018-09-19T09:06:24.997Z,29.30
2018-09-19T09:08:53.374Z,29.20
2018-09-19T09:11:21.652Z,29.30
2018-09-19T09:13:49.980Z,29.30
2018-09-19T09:16:18.599Z,29.20
2018-09-19T09:18:46.943Z,29.10
2018-09-19T09:21:15.300Z,29.30
2018-09-19T09:23:43.604Z,29.40
2018-09-19T09:26:12.060Z,29.20
2018-09-19T09:28:40.310Z,29.40
2018-09-19T09:31:08.659Z,29.40
2018-09-19T09:33:37.347Z,29.30
2018-09-19T09:36:05.695Z,28.90
2018-09-19T09:38:34.183Z,29.20
2018-09-19T09:41:02.578Z,29.10
2018-09-19T09:43:30.954Z,29.10
2018-09-19T09:45:59.329Z,29.00
2018-09-19T09:48:27.683Z,28.90
2018-09-19T09:50:56.078Z,28.40
2018-09-19T09:53:24.479Z,28.10
2018-09-19T09:55:52.690Z,28.10
2018-09-19T09:58:20.992Z,27.80
2018-09-19T10:00:49.310Z,26.80
2018-09-19T10:03:17.696Z,26.60
2018-09-19T10:05:46.025Z,25.40
2018-09-19T10:08:14.340Z,26.20
2018-09-19T10:10:42.637Z,25.80
2018-09-19T10:13:11.112Z,25.70
2018-09-19T10:15:39.454Z,25.40
2018-09-19T10:18:07.779Z,25.10
2018-09-19T10:20:36.069Z,24.60
2018-09-19T10:23:04.475Z,24.10
2018-09-19T10:25:32.805Z,23.40
2018-09-19T10:28:01.159Z,23.10
2018-09-19T10:30:29.465Z,22.80
2018-09-19T10:32:57.740Z,22.40
2018-09-19T10:35:26.050Z,22.00
2018-09-19T10:37:54.354Z,21.60
2018-09-19T10:40:22.631Z,21.40
2018-09-19T10:42:50.930Z,21.20
2018-09-19T10:45:19.197Z,20.60
2018-09-19T10:47:47.800Z,20.70
2018-09-19T10:50:16.128Z,20.00
2018-09-19T10:52:44.736Z,20.00
2018-09-19T10:55:13.032Z,19.70
2018-09-19T10:57:41.343Z,19.70
2018-09-19T11:00:09.698Z,20.00
2018-09-19T11:02:38.511Z,19.60
2018-09-19T11:05:07.122Z,19.40
2018-09-19T11:07:35.495Z,19.60
2018-09-19T11:10:04.174Z,19.10
2018-09-19T11:12:32.613Z,19.00
2018-09-19T11:15:01.111Z,18.50
2018-09-19T11:17:29.480Z,17.90
2018-09-19T11:19:57.930Z,17.70
2018-09-19T11:22:26.350Z,17.90
2018-09-19T11:24:55.028Z,17.80
2018-09-19T11:27:23.618Z,17.40
2018-09-19T11:29:52.161Z,17.30
2018-09-19T11:32:20.471Z,16.90
2018-09-19T11:34:48.855Z,16.40
2018-09-19T11:37:17.303Z,16.10
2018-09-19T11:39:45.752Z,15.40
2018-09-19T11:42:14.363Z,14.90
2018-09-19T11:44:42.783Z,15.10
2018-09-19T11:47:12.051Z,14.90
2018-09-19T11:49:41.543Z,15.20
2018-09-19T11:52:10.914Z,15.40
2018-09-19T11:54:40.265Z,15.00
2018-09-19T11:57:08.720Z,14.70
2018-09-19T11:59:37.842Z,14.90
2018-09-19T12:02:07.209Z,14.80
2018-09-19T12:04:35.791Z,14.10
2018-09-19T12:07:04.254Z,14.40
2018-09-19T12:09:32.682Z,14.50
2018-09-19T12:12:01.494Z,14.30
2018-09-19T12:14:30.512Z,14.80
2018-09-19T12:16:58.929Z,14.60
2018-09-19T12:19:28.120Z,14.20
2018-09-19T12:21:56.464Z,14.30
2018-09-19T12:24:26.140Z,14.50
2018-09-19T12:26:55.738Z,14.20
2018-09-19T12:29:25.115Z,13.80
2018-09-19T12:31:53.786Z,14.20
2018-09-19T12:34:22.185Z,14.20
2018-09-19T12:36:50.747Z,13.80
2018-09-19T12:39:19.198Z,13.60
2018-09-19T12:41:47.608Z,14.20
2018-09-19T12:44:16.621Z,13.30
2018-09-19T12:46:45.020Z,14.60
2018-09-19T12:49:14.678Z,13.50
2018-09-19T12:51:44.436Z,14.00
2018-09-19T12:54:13.856Z,14.30
2018-09-19T12:56:43.321Z,14.20
2018-09-19T12:59:12.407Z,14.40
2018-09-19T13:01:41.664Z,13.70
2018-09-19T13:04:10.791Z,14.00
2018-09-19T13:06:40.300Z,13.90
2018-09-19T13:09:10.545Z,14.30
2018-09-19T13:11:39.320Z,14.50
2018-09-19T13:14:08.735Z,14.50
2018-09-19T13:16:38.025Z,14.50
2018-09-19T13:19:07.004Z,14.10
2018-09-19T13:21:36.324Z,14.00
2018-09-19T13:24:04.800Z,14.50
2018-09-19T13:26:33.285Z,14.60
2018-09-19T13:29:01.760Z,14.60
2018-09-19T13:31:30.306Z,14.70
2018-09-19T13:33:58.953Z,15.10
2018-09-19T13:36:27.402Z,15.70
2018-09-19T13:38:55.677Z,15.20
2018-09-19T13:41:24.390Z,15.30
2018-09-19T13:43:52.797Z,15.30
2018-09-19T13:46:21.158Z,15.40
2018-09-19T13:48:57.127Z,15.60
2018-09-19T13:51:26.169Z,15.80
2018-09-19T13:53:54.643Z,15.80
2018-09-19T13:56:23.172Z,15.80
2018-09-19T13:58:51.831Z,15.90
2018-09-19T14:01:20.251Z,16.20
2018-09-19T14:03:48.593Z,16.20
2018-09-19T14:06:16.979Z,16.40
2018-09-19T14:08:45.423Z,16.40
2018-09-19T14:11:13.850Z,16.50
2018-09-19T14:13:42.403Z,16.40
2018-09-19T14:16:12.042Z,16.50
2018-09-19T14:18:41.307Z,16.10
2018-09-19T14:21:10.563Z,16.20
2018-09-19T14:23:39.301Z,16.90
2018-09-19T14:26:07.725Z,16.40
2018-09-19T14:28:36.295Z,16.40
2018-09-19T14:31:05.069Z,16.00
2018-09-19T14:33:33.572Z,16.20
2018-09-19T14:36:01.996Z,16.40
2018-09-19T14:38:30.338Z,16.30
2018-09-19T14:40:58.758Z,16.60
2018-09-19T14:43:27.690Z,16.60
2018-09-19T14:45:56.150Z,16.60
2018-09-19T14:48:24.542Z,17.20
2018-09-19T14:50:52.771Z,17.30
2018-09-19T14:53:21.695Z,17.60
2018-09-19T14:55:50.074Z,17.70
2018-09-19T14:58:18.463Z,17.50
2018-09-19T15:00:46.872Z,17.80
2018-09-19T15:03:15.349Z,17.90
2018-09-19T15:05:43.662Z,18.10
2018-09-19T15:08:11.983Z,18.10
2018-09-19T15:10:40.367Z,18.40
2018-09-19T15:13:08.800Z,18.60
2018-09-19T15:15:37.282Z,18.80
2018-09-19T15:18:05.716Z,19.20
2018-09-19T15:20:34.040Z,20.10
2018-09-19T15:23:02.508Z,20.30
2018-09-19T15:25:30.901Z,20.40
2018-09-19T15:27:59.424Z,20.50
2018-09-19T15:30:27.717Z,21.00
2018-09-19T15:32:56.138Z,21.50
2018-09-19T15:35:24.634Z,21.70
2018-09-19T15:37:53.152Z,22.20
2018-09-19T15:40:21.798Z,22.60
2018-09-19T15:42:50.162Z,23.30
2018-09-19T15:45:18.443Z,24.10
2018-09-19T15:47:47.597Z,24.40
2018-09-19T15:50:23.223Z,24.60
2018-09-19T15:52:51.811Z,25.00
2018-09-19T15:55:21.161Z,24.70
2018-09-19T15:57:49.620Z,25.40
2018-09-19T16:00:18.215Z,25.60
2018-09-19T16:02:46.717Z,25.70
2018-09-19T16:05:15.205Z,25.80
2018-09-19T16:07:43.853Z,26.00
2018-09-19T16:10:12.232Z,25.90
2018-09-19T16:12:40.588Z,26.10
2018-09-19T16:15:09.020Z,26.40
2018-09-19T16:17:37.430Z,26.60
2018-09-19T16:20:05.813Z,26.70
2018-09-19T16:22:34.120Z,26.80
2018-09-19T16:25:02.516Z,27.00
2018-09-19T16:27:30.847Z,27.20
2018-09-19T16:29:59.363Z,27.60
2018-09-19T16:32:27.688Z,27.70
2018-09-19T16:34:56.068Z,27.80
2018-09-19T16:37:24.584Z,27.80
2018-09-19T16:39:52.877Z,27.70
2018-09-19T16:42:21.198Z,27.80
2018-09-19T16:44:49.595Z,27.90
2018-09-19T16:47:17.897Z,28.10
2018-09-19T16:49:46.207Z,28.00
2018-09-19T16:52:14.532Z,28.10
2018-09-19T16:54:42.839Z,28.50
2018-09-19T16:57:11.183Z,29.00
2018-09-19T16:59:39.501Z,28.90
2018-09-19T17:02:08.050Z,29.20
2018-09-19T17:04:36.552Z,29.60
2018-09-19T17:07:05.064Z,29.50
2018-09-19T17:09:33.388Z,29.80
2018-09-19T17:12:01.693Z,29.30
2018-09-19T17:14:30.139Z,29.80
2018-09-19T17:16:58.460Z,30.00
2018-09-19T17:19:26.929Z,29.50
2018-09-19T17:21:55.356Z,29.80
2018-09-19T17:24:23.661Z,30.00
2018-09-19T17:26:52.160Z,30.00
2018-09-19T17:29:20.962Z,29.90
2018-09-19T17:31:49.685Z,30.00
2018-09-19T17:34:18.316Z,30.00
2018-09-19T17:36:46.909Z,30.00
2018-09-19T17:39:15.336Z,30.00
2018-09-19T17:41:43.767Z,29.90
2018-09-19T17:44:12.221Z,30.00
2018-09-19T17:46:40.665Z,29.90
2018-09-19T17:49:09.212Z,29.90
2018-09-19T17:51:37.575Z,29.80
2018-09-19T17:54:07.203Z,29.70
2018-09-19T17:56:35.689Z,29.60
2018-09-19T17:59:04.197Z,29.90
2018-09-19T18:01:32.503Z,30.00
2018-09-19T18:04:01.182Z,30.20
2018-09-19T18:06:29.463Z,30.20
2018-09-19T18:08:57.751Z,30.00
2018-09-19T18:11:26.243Z,30.00
2018-09-19T18:13:54.573Z,30.00
2018-09-19T18:16:22.900Z,30.00
2018-09-19T18:18:51.398Z,30.00
2018-09-19T18:21:19.712Z,30.10
2018-09-19T18:23:48.095Z,30.20
2018-09-19T18:26:16.445Z,30.30
2018-09-19T18:28:44.796Z,30.40
2018-09-19T18:31:13.123Z,30.50
2018-09-19T18:33:41.415Z,30.60
2018-09-19T18:36:09.807Z,30.60
2018-09-19T18:38:38.255Z,30.60
2018-09-19T18:41:06.558Z,30.70
2018-09-19T18:43:34.989Z,30.70
2018-09-19T18:46:03.327Z,30.70
2018-09-19T18:48:31.650Z,30.90
2018-09-19T18:51:00.224Z,30.90
2018-09-19T18:53:28.551Z,31.00
2018-09-19T18:55:56.916Z,31.10
2018-09-19T18:58:25.216Z,31.10
2018-09-19T19:00:53.545Z,31.20
2018-09-19T19:03:21.824Z,31.80
2018-09-19T19:05:50.148Z,31.10
2018-09-19T19:08:18.436Z,31.20
2018-09-19T19:10:47.132Z,31.30
2018-09-19T19:13:15.452Z,31.30
2018-09-19T19:15:43.780Z,31.60
2018-09-19T19:18:12.099Z,31.70
2018-09-19T19:20:40.448Z,32.00
2018-09-19T19:23:08.772Z,32.30
2018-09-19T19:25:37.198Z,32.00
2018-09-19T19:28:05.754Z,32.20
2018-09-19T19:30:34.217Z,32.10
2018-09-19T19:33:02.528Z,32.00
2018-09-19T19:35:30.949Z,32.00
2018-09-19T19:37:59.287Z,32.20
2018-09-19T19:40:27.729Z,32.50
2018-09-19T19:42:56.132Z,32.40
2018-09-19T19:45:24.589Z,32.40
2018-09-19T19:47:52.851Z,32.60
2018-09-19T19:50:21.244Z,32.70
2018-09-19T19:52:49.614Z,33.40
2018-09-19T19:55:18.007Z,32.80
2018-09-19T19:57:46.630Z,32.90
2018-09-19T20:00:15.130Z,33.10
2018-09-19T20:02:43.470Z,33.10
2018-09-19T20:05:11.827Z,33.10
2018-09-19T20:07:40.142Z,33.30
2018-09-19T20:10:08.579Z,33.10
2018-09-19T20:12:36.942Z,33.60
2018-09-19T20:15:05.549Z,33.10
2018-09-19T20:17:33.831Z,33.10
2018-09-19T20:20:02.147Z,33.20
2018-09-19T20:22:30.507Z,33.60
2018-09-19T20:24:58.820Z,33.60
2018-09-19T20:27:27.157Z,34.00
2018-09-19T20:29:55.528Z,33.90
2018-09-19T20:32:23.829Z,33.70
2018-09-19T20:34:52.147Z,33.60
2018-09-19T20:37:20.522Z,33.60
2018-09-19T20:39:49.007Z,33.70
2018-09-19T20:42:17.486Z,33.80
2018-09-19T20:44:45.997Z,34.00
2018-09-19T20:47:14.457Z,34.00
2018-09-19T20:49:42.823Z,33.90
2018-09-19T20:52:11.299Z,34.00
2018-09-19T20:54:39.692Z,34.10
2018-09-19T20:57:08.147Z,34.00
2018-09-19T20:59:36.546Z,34.20
2018-09-19T21:02:04.810Z,34.20
2018-09-19T21:04:33.251Z,34.40
2018-09-19T21:07:01.467Z,34.30
2018-09-19T21:09:29.792Z,34.30
2018-09-19T21:11:58.079Z,34.30
2018-09-19T21:14:26.439Z,34.30
2018-09-19T21:16:54.884Z,34.40
2018-09-19T21:19:23.295Z,35.10
2018-09-19T21:21:51.733Z,34.70
2018-09-19T21:24:20.045Z,34.70
2018-09-19T21:26:48.493Z,34.80
2018-09-19T21:29:17.047Z,34.80
2018-09-19T21:31:45.698Z,34.90
2018-09-19T21:34:13.994Z,34.80
2018-09-19T21:36:42.523Z,34.90
2018-09-19T21:39:11.531Z,34.40
2018-09-19T21:41:40.265Z,35.40
2018-09-19T21:44:08.595Z,35.30
2018-09-19T21:46:36.960Z,35.40
2018-09-19T21:49:05.723Z,35.60
2018-09-19T21:51:34.219Z,35.90
2018-09-19T21:54:02.578Z,35.90
2018-09-19T21:56:30.945Z,36.10
2018-09-19T21:58:59.227Z,36.00
2018-09-19T22:01:33.048Z,35.90
2018-09-19T22:04:01.352Z,35.90
2018-09-19T22:06:29.867Z,36.00
2018-09-19T22:08:58.313Z,35.90
2018-09-19T22:11:26.635Z,36.00
2018-09-19T22:13:54.951Z,36.00
2018-09-19T22:16:23.365Z,36.20
2018-09-19T22:18:51.655Z,36.30
2018-09-19T22:21:20.037Z,36.50
2018-09-19T22:23:48.390Z,36.30
2018-09-19T22:26:16.936Z,36.30
2018-09-19T22:28:45.632Z,36.70
2018-09-19T22:31:14.061Z,36.80
2018-09-19T22:33:42.493Z,36.90
2018-09-19T22:36:10.807Z,37.00
2018-09-19T22:38:39.283Z,37.10
2018-09-19T22:41:07.700Z,37.40
2018-09-19T22:43:36.025Z,37.20
2018-09-19T22:46:04.596Z,37.40
2018-09-19T22:48:32.909Z,37.10
2018-09-19T22:51:01.485Z,37.10
2018-09-19T22:53:29.995Z,37.20
2018-09-19T22:55:58.326Z,37.20
2018-09-19T22:58:26.650Z,37.40
2018-09-19T23:00:54.994Z,37.20
2018-09-19T23:03:23.367Z,37.20
2018-09-19T23:05:51.876Z,37.50
2018-09-19T23:08:21.036Z,37.50
2018-09-19T23:10:49.617Z,37.50
2018-09-19T23:13:18.028Z,37.60
2018-09-19T23:15:46.435Z,37.50
2018-09-19T23:18:14.750Z,37.80
2018-09-19T23:20:43.071Z,37.80
2018-09-19T23:23:11.426Z,38.10
2018-09-19T23:25:39.781Z,38.20
2018-09-19T23:28:08.207Z,38.20
2018-09-19T23:30:36.540Z,38.40
2018-09-19T23:33:05.020Z,38.50
2018-09-19T23:35:33.325Z,38.70
2018-09-19T23:38:01.632Z,38.60
2018-09-19T23:40:29.921Z,38.60
2018-09-19T23:42:58.256Z,38.70
2018-09-19T23:45:26.582Z,38.90
2018-09-19T23:47:54.885Z,39.00
2018-09-19T23:50:23.146Z,39.20
2018-09-19T23:52:51.515Z,39.30
2018-09-19T23:55:20.006Z,39.30
2018-09-19T23:57:48.483Z,39.40
